createdAt,value
2024-04-02T00:00:13.794Z,973.89
2024-04-02T00:01:13.748Z,973.86
2024-04-02T00:02:13.892Z,973.84
2024-04-02T00:03:13.747Z,973.87
2024-04-02T00:04:14.671Z,973.94
2024-04-02T00:05:13.670Z,973.87
2024-04-02T00:06:13.677Z,973.91
2024-04-02T00:07:13.658Z,973.92
2024-04-02T00:08:13.744Z,974.01
2024-04-02T00:09:13.659Z,973.98
2024-04-02T00:10:13.616Z,973.97
2024-04-02T00:11:13.572Z,974.01
2024-04-02T00:12:13.574Z,973.96
2024-04-02T00:13:13.605Z,973.92
2024-04-02T00:14:13.545Z,974.00
2024-04-02T00:15:13.578Z,973.95
2024-04-02T00:16:13.510Z,973.98
2024-04-02T00:17:13.640Z,974.00
2024-04-02T00:18:13.490Z,973.94
2024-04-02T00:19:13.551Z,973.95
2024-04-02T00:20:13.563Z,973.92
2024-04-02T00:21:13.501Z,973.86
2024-04-02T00:22:13.430Z,973.90
2024-04-02T00:23:13.429Z,973.88
2024-04-02T00:24:13.483Z,973.98
2024-04-02T00:25:13.457Z,973.99
2024-04-02T00:26:13.438Z,974.16
2024-04-02T00:27:13.367Z,974.18
2024-04-02T00:28:14.190Z,974.28
2024-04-02T00:29:13.432Z,974.33
2024-04-02T00:30:13.441Z,974.34
2024-04-02T00:31:13.453Z,974.40
2024-04-02T00:32:13.316Z,974.34
2024-04-02T00:33:13.560Z,974.44
2024-04-02T00:34:13.290Z,974.49
2024-04-02T00:35:13.237Z,974.55
2024-04-02T00:36:13.252Z,974.52
2024-04-02T00:37:13.232Z,974.59
2024-04-02T00:38:13.895Z,974.53
2024-04-02T00:39:13.241Z,974.54
2024-04-02T00:40:13.807Z,974.61
2024-04-02T00:41:13.340Z,974.55
2024-04-02T00:42:13.198Z,974.57
2024-04-02T00:43:13.140Z,974.55
2024-04-02T00:44:13.181Z,974.59
2024-04-02T00:45:13.167Z,974.53
2024-04-02T00:46:13.112Z,974.49
2024-04-02T00:47:13.070Z,974.44
2024-04-02T00:48:13.074Z,974.49
2024-04-02T00:49:13.108Z,974.36
2024-04-02T00:50:13.754Z,974.27
2024-04-02T00:51:13.276Z,974.35
2024-04-02T00:52:13.787Z,974.38
2024-04-02T00:53:13.184Z,974.35
2024-04-02T00:54:13.000Z,974.40
2024-04-02T00:55:13.003Z,974.46
2024-04-02T00:56:12.963Z,974.47
2024-04-02T00:57:12.942Z,974.48
2024-04-02T00:58:12.946Z,974.54
2024-04-02T00:59:13.042Z,974.54
2024-04-02T01:00:13.022Z,974.57
2024-04-02T01:01:13.674Z,974.54
2024-04-02T01:02:13.734Z,974.58
2024-04-02T01:03:13.121Z,974.56
2024-04-02T01:04:12.889Z,974.55
2024-04-02T01:05:12.869Z,974.66
2024-04-02T01:06:12.857Z,974.62
2024-04-02T01:07:12.826Z,974.65
2024-04-02T01:08:12.919Z,974.78
2024-04-02T01:09:12.775Z,974.78
2024-04-02T01:10:12.802Z,974.74
2024-04-02T01:11:12.879Z,974.81
2024-04-02T01:12:12.809Z,974.72
2024-04-02T01:13:12.757Z,974.66
2024-04-02T01:14:12.758Z,974.76
2024-04-02T01:15:12.701Z,974.70
2024-04-02T01:16:12.743Z,974.73
2024-04-02T01:17:12.699Z,974.73
2024-04-02T01:18:12.684Z,974.70
2024-04-02T01:19:12.650Z,974.72
2024-04-02T01:20:12.709Z,974.74
2024-04-02T01:21:12.626Z,974.75
2024-04-02T01:22:12.601Z,974.77
2024-04-02T01:23:12.699Z,974.79
2024-04-02T01:24:12.676Z,974.77
2024-04-02T01:25:12.605Z,974.74
2024-04-02T01:26:12.591Z,974.75
2024-04-02T01:27:12.576Z,974.88
2024-04-02T01:28:12.605Z,974.86
2024-04-02T01:29:12.569Z,974.82
2024-04-02T01:30:12.554Z,974.77
2024-04-02T01:31:12.505Z,974.81
2024-04-02T01:32:12.534Z,974.79
2024-04-02T01:33:12.475Z,974.76
2024-04-02T01:34:12.458Z,974.79
2024-04-02T01:35:12.606Z,974.68
2024-04-02T01:36:12.457Z,974.72
2024-04-02T01:37:12.631Z,974.80
2024-04-02T01:38:12.674Z,974.76
2024-04-02T01:39:12.390Z,974.77
2024-04-02T01:40:12.388Z,974.81
2024-04-02T01:41:12.430Z,974.78
2024-04-02T01:42:12.338Z,974.81
2024-04-02T01:43:12.345Z,974.81
2024-04-02T01:44:12.368Z,974.78
2024-04-02T01:45:12.367Z,974.84
2024-04-02T01:46:12.332Z,974.78
2024-04-02T01:47:12.364Z,974.79
2024-04-02T01:48:12.313Z,974.78
2024-04-02T01:49:12.271Z,974.75
2024-04-02T01:50:12.330Z,974.74
2024-04-02T01:51:12.343Z,974.79
2024-04-02T01:52:12.277Z,974.71
2024-04-02T01:53:12.240Z,974.73
2024-04-02T01:54:12.207Z,974.77
2024-04-02T01:55:12.238Z,974.67
2024-04-02T01:56:12.213Z,974.67
2024-04-02T01:57:12.158Z,974.71
2024-04-02T01:58:12.223Z,974.65
2024-04-02T01:59:12.284Z,974.65
2024-04-02T02:00:12.120Z,974.63
2024-04-02T02:01:12.116Z,974.57
2024-04-02T02:02:12.122Z,974.61
2024-04-02T02:03:12.069Z,974.55
2024-04-02T02:04:12.072Z,974.56
2024-04-02T02:05:12.064Z,974.59
2024-04-02T02:06:12.084Z,974.58
2024-04-02T02:07:12.031Z,974.54
2024-04-02T02:08:12.078Z,974.55
2024-04-02T02:09:12.078Z,974.59
2024-04-02T02:10:11.964Z,974.56
2024-04-02T02:11:12.046Z,974.59
2024-04-02T02:12:12.008Z,974.62
2024-04-02T02:13:11.946Z,974.63
2024-04-02T02:14:11.976Z,974.66
2024-04-02T02:15:11.949Z,974.65
2024-04-02T02:16:11.974Z,974.67
2024-04-02T02:17:11.882Z,974.67
2024-04-02T02:18:12.710Z,974.75
2024-04-02T02:19:11.823Z,974.77
2024-04-02T02:20:11.888Z,974.78
2024-04-02T02:21:11.873Z,974.79
2024-04-02T02:22:11.935Z,974.80
2024-04-02T02:23:11.829Z,974.81
2024-04-02T02:24:11.808Z,974.78
2024-04-02T02:25:11.783Z,974.84
2024-04-02T02:26:11.779Z,974.88
2024-04-02T02:27:11.782Z,974.91
2024-04-02T02:28:11.812Z,974.91
2024-04-02T02:29:11.776Z,974.85
2024-04-02T02:30:11.749Z,974.86
2024-04-02T02:31:11.790Z,974.85
2024-04-02T02:32:11.751Z,974.83
2024-04-02T02:33:11.662Z,974.78
2024-04-02T02:34:11.648Z,974.85
2024-04-02T02:35:11.655Z,974.76
2024-04-02T02:36:11.664Z,974.80
2024-04-02T02:37:11.618Z,974.75
2024-04-02T02:38:11.614Z,974.74
2024-04-02T02:39:11.572Z,974.80
2024-04-02T02:40:11.583Z,974.82
2024-04-02T02:41:11.600Z,974.79
2024-04-02T02:42:11.603Z,974.75
2024-04-02T02:43:11.516Z,974.79
2024-04-02T02:44:11.514Z,974.79
2024-04-02T02:45:11.591Z,974.78
2024-04-02T02:46:11.467Z,974.82
2024-04-02T02:47:11.474Z,974.83
2024-04-02T02:48:11.521Z,974.85
2024-04-02T02:49:11.450Z,974.89
2024-04-02T02:50:11.428Z,974.87
2024-04-02T02:51:11.433Z,974.92
2024-04-02T02:52:11.411Z,974.88
2024-04-02T02:53:11.485Z,974.82
2024-04-02T02:54:11.361Z,974.83
2024-04-02T02:55:11.378Z,974.86
2024-04-02T02:56:11.358Z,974.99
2024-04-02T02:57:11.415Z,974.96
2024-04-02T02:58:11.309Z,974.91
2024-04-02T02:59:11.358Z,974.98
2024-04-02T03:00:11.283Z,974.95
2024-04-02T03:01:11.378Z,974.96
2024-04-02T03:02:11.286Z,974.94
2024-04-02T03:03:11.298Z,975.01
2024-04-02T03:04:11.295Z,975.00
2024-04-02T03:05:11.334Z,975.03
2024-04-02T03:06:11.273Z,975.10
2024-04-02T03:07:11.282Z,975.04
2024-04-02T03:08:12.871Z,975.03
2024-04-02T03:09:11.259Z,975.00
2024-04-02T03:10:11.281Z,975.06
2024-04-02T03:11:11.310Z,975.05
2024-04-02T03:12:11.196Z,975.10
2024-04-02T03:13:11.154Z,975.08
2024-04-02T03:14:11.105Z,975.02
2024-04-02T03:15:11.077Z,975.13
2024-04-02T03:16:11.088Z,975.11
2024-04-02T03:17:11.086Z,975.13
2024-04-02T03:18:11.100Z,975.16
2024-04-02T03:19:11.052Z,975.16
2024-04-02T03:20:11.151Z,975.23
2024-04-02T03:21:11.052Z,975.26
2024-04-02T03:22:11.062Z,975.20
2024-04-02T03:23:11.071Z,975.15
2024-04-02T03:24:10.990Z,975.24
2024-04-02T03:25:11.111Z,975.22
2024-04-02T03:26:10.975Z,975.23
2024-04-02T03:27:10.932Z,975.29
2024-04-02T03:28:11.090Z,975.29
2024-04-02T03:29:11.000Z,975.33
2024-04-02T03:30:13.549Z,975.24
2024-04-02T03:31:10.931Z,975.36
2024-04-02T03:32:10.874Z,975.35
2024-04-02T03:33:10.993Z,975.37
2024-04-02T03:34:10.980Z,975.36
2024-04-02T03:35:10.879Z,975.44
2024-04-02T03:36:10.806Z,975.44
2024-04-02T03:37:11.104Z,975.40
2024-04-02T03:38:11.051Z,975.45
2024-04-02T03:39:10.780Z,975.45
2024-04-02T03:40:10.809Z,975.49
2024-04-02T03:41:10.826Z,975.52
2024-04-02T03:42:10.719Z,975.62
2024-04-02T03:43:10.731Z,975.56
2024-04-02T03:44:10.795Z,975.53
2024-04-02T03:45:10.739Z,975.51
2024-04-02T03:46:10.664Z,975.48
2024-04-02T03:47:10.874Z,975.50
2024-04-02T03:48:10.634Z,975.57
2024-04-02T03:49:10.720Z,975.54
2024-04-02T03:50:12.190Z,975.57
2024-04-02T03:51:10.611Z,975.59
2024-04-02T03:52:10.628Z,975.58
2024-04-02T03:53:10.641Z,975.65
2024-04-02T03:54:10.556Z,975.66
2024-04-02T03:55:10.617Z,975.75
2024-04-02T03:56:10.577Z,975.72
2024-04-02T03:57:10.593Z,975.70
2024-04-02T03:58:10.621Z,975.82
2024-04-02T03:59:10.510Z,975.82
2024-04-02T04:00:10.524Z,975.90
2024-04-02T04:01:10.531Z,975.93
2024-04-02T04:02:10.615Z,975.85
2024-04-02T04:03:10.486Z,975.84
2024-04-02T04:04:10.614Z,975.95
2024-04-02T04:05:10.511Z,975.97
2024-04-02T04:06:10.477Z,976.03
2024-04-02T04:07:10.421Z,975.97
2024-04-02T04:08:10.524Z,975.95
2024-04-02T04:09:10.470Z,975.95
2024-04-02T04:10:10.377Z,975.94
2024-04-02T04:11:10.348Z,975.88
2024-04-02T04:12:10.372Z,976.02
2024-04-02T04:13:10.325Z,975.92
2024-04-02T04:14:10.325Z,975.95
2024-04-02T04:15:10.282Z,976.03
2024-04-02T04:16:10.286Z,975.99
2024-04-02T04:17:10.290Z,975.99
2024-04-02T04:18:10.264Z,976.03
2024-04-02T04:19:10.292Z,975.98
2024-04-02T04:20:10.275Z,975.99
2024-04-02T04:21:10.295Z,976.06
2024-04-02T04:22:10.220Z,976.07
2024-04-02T04:23:10.214Z,976.13
2024-04-02T04:24:10.266Z,976.11
2024-04-02T04:25:10.270Z,976.14
2024-04-02T04:26:10.196Z,976.17
2024-04-02T04:27:10.258Z,976.07
2024-04-02T04:28:10.143Z,976.16
2024-04-02T04:29:10.186Z,976.13
2024-04-02T04:30:10.262Z,976.14
2024-04-02T04:31:10.263Z,976.22
2024-04-02T04:32:10.074Z,976.22
2024-04-02T04:33:10.188Z,976.26
2024-04-02T04:34:10.280Z,976.29
2024-04-02T04:35:10.173Z,976.31
2024-04-02T04:36:10.065Z,976.32
2024-04-02T04:37:09.994Z,976.33
2024-04-02T04:38:10.086Z,976.30
2024-04-02T04:39:09.994Z,976.35
2024-04-02T04:40:10.059Z,976.37
2024-04-02T04:41:09.986Z,976.36
2024-04-02T04:42:09.938Z,976.40
2024-04-02T04:43:09.923Z,976.43
2024-04-02T04:44:09.941Z,976.41
2024-04-02T04:45:09.879Z,976.46
2024-04-02T04:46:09.976Z,976.51
2024-04-02T04:47:09.939Z,976.48
2024-04-02T04:48:09.883Z,976.50
2024-04-02T04:49:09.878Z,976.56
2024-04-02T04:50:09.849Z,976.48
2024-04-02T04:51:10.191Z,976.53
2024-04-02T04:52:10.272Z,976.50
2024-04-02T04:53:09.766Z,976.53
2024-04-02T04:54:09.745Z,976.64
2024-04-02T04:55:09.732Z,976.63
2024-04-02T04:56:09.737Z,976.65
2024-04-02T04:57:09.721Z,976.67
2024-04-02T04:58:09.694Z,976.61
2024-04-02T04:59:09.715Z,976.70
2024-04-02T05:00:09.714Z,976.73
2024-04-02T05:01:09.679Z,976.65
2024-04-02T05:02:09.655Z,976.63
2024-04-02T05:03:09.645Z,976.54
2024-04-02T05:04:09.624Z,976.68
2024-04-02T05:05:10.588Z,976.66
2024-04-02T05:06:09.635Z,976.64
2024-04-02T05:07:09.625Z,976.71
2024-04-02T05:08:09.696Z,976.90
2024-04-02T05:09:09.626Z,976.86
2024-04-02T05:10:09.579Z,976.82
2024-04-02T05:11:10.707Z,976.89
2024-04-02T05:12:09.566Z,976.88
2024-04-02T05:13:09.502Z,976.86
2024-04-02T05:14:09.540Z,976.87
2024-04-02T05:15:09.460Z,976.96
2024-04-02T05:16:09.476Z,976.91
2024-04-02T05:17:09.451Z,976.94
2024-04-02T05:18:09.471Z,977.07
2024-04-02T05:19:09.434Z,977.08
2024-04-02T05:20:09.408Z,977.12
2024-04-02T05:21:09.454Z,977.16
2024-04-02T05:22:09.374Z,977.19
2024-04-02T05:23:09.364Z,977.20
2024-04-02T05:24:09.392Z,977.24
2024-04-02T05:25:09.329Z,977.25
2024-04-02T05:26:09.311Z,977.30
2024-04-02T05:27:09.405Z,977.28
2024-04-02T05:28:09.377Z,977.33
2024-04-02T05:29:09.281Z,977.25
2024-04-02T05:30:09.304Z,977.34
2024-04-02T05:31:09.318Z,977.33
2024-04-02T05:32:09.347Z,977.41
2024-04-02T05:33:09.253Z,977.38
2024-04-02T05:34:09.337Z,977.37
2024-04-02T05:35:09.220Z,977.35
2024-04-02T05:36:09.338Z,977.40
2024-04-02T05:37:09.167Z,977.52
2024-04-02T05:38:09.269Z,977.34
2024-04-02T05:39:09.185Z,977.36
2024-04-02T05:40:09.272Z,977.43
2024-04-02T05:41:09.205Z,977.39
2024-04-02T05:42:09.107Z,977.38
2024-04-02T05:43:09.091Z,977.45
2024-04-02T05:44:09.544Z,977.40
2024-04-02T05:45:09.409Z,977.41
2024-04-02T05:46:09.055Z,977.46
2024-04-02T05:47:09.043Z,977.48
2024-04-02T05:48:09.142Z,977.44
2024-04-02T05:49:09.071Z,977.38
2024-04-02T05:50:08.972Z,977.51
2024-04-02T05:51:09.016Z,977.31
2024-04-02T05:52:08.994Z,977.43
2024-04-02T05:53:08.958Z,977.35
2024-04-02T05:54:08.976Z,977.43
2024-04-02T05:55:09.044Z,977.57
2024-04-02T05:56:08.946Z,977.46
2024-04-02T05:57:09.087Z,977.56
2024-04-02T05:58:08.923Z,977.48
2024-04-02T05:59:08.927Z,977.43
2024-04-02T06:00:09.125Z,977.36
2024-04-02T06:01:08.912Z,977.35
2024-04-02T06:02:08.826Z,977.37
2024-04-02T06:03:08.834Z,977.32
2024-04-02T06:04:09.003Z,977.32
2024-04-02T06:05:08.819Z,977.24
2024-04-02T06:06:08.765Z,977.41
2024-04-02T06:07:08.950Z,977.32
2024-04-02T06:08:08.734Z,977.25
2024-04-02T06:09:08.766Z,977.27
2024-04-02T06:10:08.724Z,977.28
2024-04-02T06:11:08.725Z,977.28
2024-04-02T06:12:08.736Z,977.31
2024-04-02T06:13:08.763Z,977.22
2024-04-02T06:14:08.752Z,977.37
2024-04-02T06:15:08.656Z,977.45
2024-04-02T06:16:08.671Z,977.44
2024-04-02T06:17:10.096Z,977.37
2024-04-02T06:18:08.664Z,977.44
2024-04-02T06:19:08.651Z,977.37
2024-04-02T06:20:08.603Z,977.42
2024-04-02T06:21:08.579Z,977.40
2024-04-02T06:22:08.578Z,977.44
2024-04-02T06:23:09.433Z,977.48
2024-04-02T06:24:08.525Z,977.47
2024-04-02T06:25:08.523Z,977.41
2024-04-02T06:26:08.537Z,977.50
2024-04-02T06:27:08.539Z,977.45
2024-04-02T06:28:08.475Z,977.50
2024-04-02T06:29:08.554Z,977.56
2024-04-02T06:30:08.436Z,977.62
2024-04-02T06:31:08.447Z,977.58
2024-04-02T06:32:08.432Z,977.63
2024-04-02T06:33:08.462Z,977.63
2024-04-02T06:34:08.391Z,977.59
2024-04-02T06:35:08.400Z,977.63
2024-04-02T06:36:08.474Z,977.69
2024-04-02T06:37:08.420Z,977.69
2024-04-02T06:38:08.331Z,977.74
2024-04-02T06:39:08.351Z,977.66
2024-04-02T06:40:08.328Z,977.70
2024-04-02T06:41:08.300Z,977.66
2024-04-02T06:42:08.351Z,977.66
2024-04-02T06:43:08.315Z,977.63
2024-04-02T06:44:08.267Z,977.71
2024-04-02T06:45:08.256Z,977.73
2024-04-02T06:46:08.223Z,977.75
2024-04-02T06:47:08.232Z,977.72
2024-04-02T06:48:08.216Z,977.77
2024-04-02T06:49:08.194Z,977.74
2024-04-02T06:50:08.169Z,977.74
2024-04-02T06:51:08.222Z,977.74
2024-04-02T06:52:08.146Z,977.75
2024-04-02T06:53:08.145Z,977.79
2024-04-02T06:54:08.170Z,977.79
2024-04-02T06:55:08.172Z,977.81
2024-04-02T06:56:08.136Z,977.76
2024-04-02T06:57:08.149Z,977.79
2024-04-02T06:58:08.119Z,977.79
2024-04-02T06:59:08.133Z,977.86
2024-04-02T07:00:08.062Z,977.86
2024-04-02T07:01:08.064Z,977.94
2024-04-02T07:02:08.059Z,977.95
2024-04-02T07:03:08.081Z,977.86
2024-04-02T07:04:08.038Z,977.85
2024-04-02T07:05:08.001Z,977.86
2024-04-02T07:06:07.995Z,977.95
2024-04-02T07:07:07.998Z,977.95
2024-04-02T07:08:08.096Z,977.91
2024-04-02T07:09:07.928Z,977.94
2024-04-02T07:10:07.895Z,977.90
2024-04-02T07:11:07.890Z,977.97
2024-04-02T07:12:08.225Z,977.96
2024-04-02T07:13:07.873Z,978.01
2024-04-02T07:14:07.885Z,977.92
2024-04-02T07:15:07.858Z,978.01
2024-04-02T07:16:07.877Z,978.09
2024-04-02T07:17:07.873Z,977.90
2024-04-02T07:18:07.885Z,977.97
2024-04-02T07:19:07.849Z,977.99
2024-04-02T07:20:07.812Z,978.10
2024-04-02T07:21:07.790Z,978.00
2024-04-02T07:22:07.833Z,978.02
2024-04-02T07:23:07.838Z,978.17
2024-04-02T07:24:07.789Z,978.15
2024-04-02T07:25:07.770Z,978.15
2024-04-02T07:26:07.735Z,978.23
2024-04-02T07:27:07.674Z,978.28
2024-04-02T07:28:07.674Z,978.31
2024-04-02T07:29:07.701Z,978.29
2024-04-02T07:30:07.659Z,978.39
2024-04-02T07:31:07.643Z,978.32
2024-04-02T07:32:08.325Z,978.35
2024-04-02T07:33:07.626Z,978.32
2024-04-02T07:34:07.606Z,978.45
2024-04-02T07:35:07.580Z,978.42
2024-04-02T07:36:07.568Z,978.39
2024-04-02T07:37:07.599Z,978.33
2024-04-02T07:38:07.527Z,978.45
2024-04-02T07:39:07.529Z,978.43
2024-04-02T07:40:07.496Z,978.39
2024-04-02T07:41:07.529Z,978.41
2024-04-02T07:42:07.506Z,978.34
2024-04-02T07:43:07.493Z,978.43
2024-04-02T07:44:07.536Z,978.46
2024-04-02T07:45:07.463Z,978.40
2024-04-02T07:46:07.416Z,978.45
2024-04-02T07:47:07.419Z,978.48
2024-04-02T07:48:07.506Z,978.51
2024-04-02T07:49:07.436Z,978.54
2024-04-02T07:50:07.386Z,978.53
2024-04-02T07:51:07.488Z,978.50
2024-04-02T07:52:08.265Z,978.42
2024-04-02T07:53:07.358Z,978.51
2024-04-02T07:54:07.378Z,978.49
2024-04-02T07:55:07.303Z,978.46
2024-04-02T07:56:07.302Z,978.51
2024-04-02T07:57:07.503Z,978.55
2024-04-02T07:58:07.265Z,978.53
2024-04-02T07:59:09.321Z,978.51
2024-04-02T08:00:07.333Z,978.56
2024-04-02T08:01:07.233Z,978.59
2024-04-02T08:02:07.233Z,978.62
2024-04-02T08:03:07.488Z,978.74
2024-04-02T08:04:07.190Z,978.73
2024-04-02T08:05:07.181Z,978.74
2024-04-02T08:06:07.160Z,978.69
2024-04-02T08:07:07.452Z,978.80
2024-04-02T08:08:07.286Z,978.87
2024-04-02T08:09:07.126Z,978.94
2024-04-02T08:10:07.157Z,978.98
2024-04-02T08:11:07.120Z,978.98
2024-04-02T08:12:07.880Z,978.91
2024-04-02T08:13:07.516Z,978.98
2024-04-02T08:14:07.072Z,978.93
2024-04-02T08:15:07.051Z,978.95
2024-04-02T08:16:07.034Z,978.83
2024-04-02T08:17:07.018Z,978.80
2024-04-02T08:18:07.021Z,978.94
2024-04-02T08:19:07.111Z,979.05
2024-04-02T08:20:07.030Z,978.97
2024-04-02T08:21:06.983Z,979.00
2024-04-02T08:22:06.968Z,979.04
2024-04-02T08:23:06.995Z,979.02
2024-04-02T08:24:06.947Z,979.04
2024-04-02T08:25:06.940Z,979.01
2024-04-02T08:26:06.970Z,978.99
2024-04-02T08:27:06.913Z,979.03
2024-04-02T08:28:06.893Z,979.03
2024-04-02T08:29:06.941Z,979.13
2024-04-02T08:30:06.891Z,979.09
2024-04-02T08:31:06.878Z,979.09
2024-04-02T08:32:06.827Z,979.07
2024-04-02T08:33:06.811Z,979.08
2024-04-02T08:34:06.813Z,979.00
2024-04-02T08:35:06.821Z,979.05
2024-04-02T08:36:06.799Z,979.11
2024-04-02T08:37:06.834Z,979.20
2024-04-02T08:38:06.757Z,979.19
2024-04-02T08:39:08.816Z,979.30
2024-04-02T08:40:06.776Z,979.31
2024-04-02T08:41:06.746Z,979.36
2024-04-02T08:42:17.313Z,979.31
2024-04-02T08:43:06.669Z,979.32
2024-04-02T08:44:06.708Z,979.40
2024-04-02T08:45:06.660Z,979.33
2024-04-02T08:46:06.634Z,979.30
2024-04-02T08:47:06.600Z,979.41
2024-04-02T08:48:06.635Z,979.48
2024-04-02T08:49:06.625Z,979.54
2024-04-02T08:50:06.602Z,979.46
2024-04-02T08:51:06.586Z,979.46
2024-04-02T08:52:06.544Z,979.41
2024-04-02T08:53:06.650Z,979.50
2024-04-02T08:54:06.853Z,979.57
2024-04-02T08:55:06.544Z,979.36
2024-04-02T08:56:08.017Z,979.44
2024-04-02T08:57:06.483Z,979.47
2024-04-02T08:58:06.531Z,979.53
2024-04-02T08:59:06.490Z,979.36
2024-04-02T09:00:06.588Z,979.46
2024-04-02T09:01:06.420Z,979.56
2024-04-02T09:02:06.451Z,979.55
2024-04-02T09:03:06.440Z,979.50
2024-04-02T09:04:06.419Z,979.50
2024-04-02T09:05:06.379Z,979.57
2024-04-02T09:06:06.369Z,979.57
2024-04-02T09:07:06.351Z,979.66
2024-04-02T09:08:06.461Z,979.62
2024-04-02T09:09:06.325Z,979.58
2024-04-02T09:10:06.409Z,979.71
2024-04-02T09:11:06.326Z,979.67
2024-04-02T09:12:06.366Z,979.74
2024-04-02T09:13:06.273Z,979.68
2024-04-02T09:14:06.290Z,979.71
2024-04-02T09:15:06.253Z,979.78
2024-04-02T09:16:06.254Z,979.91
2024-04-02T09:17:06.313Z,979.82
2024-04-02T09:18:06.275Z,979.75
2024-04-02T09:19:06.194Z,979.88
2024-04-02T09:20:06.287Z,979.84
2024-04-02T09:21:06.163Z,979.84
2024-04-02T09:22:06.145Z,979.80
2024-04-02T09:23:06.232Z,979.81
2024-04-02T09:24:06.336Z,979.87
2024-04-02T09:25:06.881Z,979.87
2024-04-02T09:26:06.222Z,979.85
2024-04-02T09:27:06.258Z,979.93
2024-04-02T09:28:06.081Z,980.03
2024-04-02T09:29:06.054Z,979.97
2024-04-02T09:30:06.318Z,979.95
2024-04-02T09:31:06.121Z,979.96
2024-04-02T09:32:06.028Z,980.03
2024-04-02T09:33:06.045Z,980.07
2024-04-02T09:34:05.987Z,980.02
2024-04-02T09:35:05.972Z,980.05
2024-04-02T09:36:06.182Z,980.04
2024-04-02T09:37:05.955Z,980.15
2024-04-02T09:38:05.928Z,980.16
2024-04-02T09:39:05.921Z,980.15
2024-04-02T09:40:05.909Z,980.11
2024-04-02T09:41:05.916Z,980.07
2024-04-02T09:42:05.908Z,980.06
2024-04-02T09:43:05.877Z,980.12
2024-04-02T09:44:05.853Z,980.16
2024-04-02T09:45:05.831Z,980.20
2024-04-02T09:46:05.820Z,980.11
2024-04-02T09:47:06.591Z,980.20
2024-04-02T09:48:06.808Z,980.01
2024-04-02T09:49:06.551Z,980.02
2024-04-02T09:50:06.753Z,980.01
2024-04-02T09:51:06.246Z,980.16
2024-04-02T09:52:06.416Z,980.09
2024-04-02T09:53:05.971Z,980.14
2024-04-02T09:54:05.816Z,980.12
2024-04-02T09:55:05.708Z,980.19
2024-04-02T09:56:05.695Z,980.22
2024-04-02T09:57:05.705Z,980.15
2024-04-02T09:58:05.662Z,980.36
2024-04-02T09:59:05.669Z,980.31
2024-04-02T10:00:05.666Z,980.32
2024-04-02T10:01:05.697Z,980.34
2024-04-02T10:02:05.603Z,980.31
2024-04-02T10:03:05.618Z,980.33
2024-04-02T10:04:05.585Z,980.37
2024-04-02T10:05:05.594Z,980.30
2024-04-02T10:06:05.551Z,980.29
2024-04-02T10:07:06.826Z,980.41
2024-04-02T10:08:05.524Z,980.31
2024-04-02T10:09:05.982Z,980.33
2024-04-02T10:10:05.494Z,980.29
2024-04-02T10:11:05.481Z,980.37
2024-04-02T10:12:05.514Z,980.17
2024-04-02T10:13:05.948Z,980.28
2024-04-02T10:14:05.464Z,980.30
2024-04-02T10:15:05.447Z,980.22
2024-04-02T10:16:05.687Z,980.27
2024-04-02T10:17:05.405Z,980.29
2024-04-02T10:18:05.410Z,980.24
2024-04-02T10:19:05.442Z,980.27
2024-04-02T10:20:05.370Z,980.37
2024-04-02T10:21:05.476Z,980.25
2024-04-02T10:22:05.362Z,980.25
2024-04-02T10:23:05.366Z,980.38
2024-04-02T10:24:05.302Z,980.38
2024-04-02T10:25:05.320Z,980.39
2024-04-02T10:26:05.282Z,980.43
2024-04-02T10:27:05.255Z,980.34
2024-04-02T10:28:05.291Z,980.37
2024-04-02T10:29:05.251Z,980.40
2024-04-02T10:30:05.285Z,980.43
2024-04-02T10:31:05.247Z,980.41
2024-04-02T10:32:05.270Z,980.48
2024-04-02T10:33:05.297Z,980.46
2024-04-02T10:34:05.228Z,980.47
2024-04-02T10:35:05.184Z,980.58
2024-04-02T10:36:05.179Z,980.62
2024-04-02T10:37:06.606Z,980.62
2024-04-02T10:38:05.130Z,980.72
2024-04-02T10:39:05.097Z,980.87
2024-04-02T10:40:05.187Z,980.64
2024-04-02T10:41:05.104Z,980.69
2024-04-02T10:42:05.065Z,980.69
2024-04-02T10:43:05.058Z,980.67
2024-04-02T10:44:05.033Z,980.78
2024-04-02T10:45:05.044Z,980.68
2024-04-02T10:46:05.017Z,980.63
2024-04-02T10:47:05.001Z,980.71
2024-04-02T10:48:05.438Z,980.62
2024-04-02T10:49:05.010Z,980.59
2024-04-02T10:50:04.964Z,980.62
2024-04-02T10:51:04.939Z,980.60
2024-04-02T10:52:05.017Z,980.60
2024-04-02T10:53:04.936Z,980.66
2024-04-02T10:54:04.983Z,980.66
2024-04-02T10:55:04.945Z,980.64
2024-04-02T10:56:04.931Z,980.75
2024-04-02T10:57:04.910Z,980.77
2024-04-02T10:58:05.237Z,980.73
2024-04-02T10:59:05.046Z,980.75
2024-04-02T11:00:04.838Z,980.81
2024-04-02T11:01:04.846Z,980.80
2024-04-02T11:02:04.852Z,980.82
2024-04-02T11:03:04.809Z,980.72
2024-04-02T11:04:04.858Z,980.73
2024-04-02T11:05:04.870Z,980.73
2024-04-02T11:06:04.776Z,980.77
2024-04-02T11:07:04.729Z,980.74
2024-04-02T11:08:04.812Z,980.78
2024-04-02T11:09:04.695Z,980.77
2024-04-02T11:10:04.678Z,980.86
2024-04-02T11:11:04.734Z,980.91
2024-04-02T11:12:04.658Z,980.90
2024-04-02T11:13:04.661Z,980.92
2024-04-02T11:14:04.775Z,980.96
2024-04-02T11:15:04.648Z,980.97
2024-04-02T11:16:04.633Z,980.99
2024-04-02T11:17:04.604Z,981.03
2024-04-02T11:18:04.638Z,981.07
2024-04-02T11:19:05.299Z,981.10
2024-04-02T11:20:04.605Z,981.04
2024-04-02T11:21:04.543Z,981.09
2024-04-02T11:22:04.532Z,981.12
2024-04-02T11:23:04.529Z,981.10
2024-04-02T11:24:04.495Z,981.05
2024-04-02T11:25:17.727Z,980.99
2024-04-02T11:26:04.483Z,981.06
2024-04-02T11:27:04.498Z,981.10
2024-04-02T11:28:04.450Z,981.10
2024-04-02T11:29:04.446Z,981.16
2024-04-02T11:30:04.431Z,981.08
2024-04-02T11:31:04.441Z,981.18
2024-04-02T11:32:04.387Z,981.12
2024-04-02T11:33:04.367Z,981.12
2024-04-02T11:34:04.452Z,981.31
2024-04-02T11:35:04.338Z,981.19
2024-04-02T11:36:04.385Z,981.14
2024-04-02T11:37:04.329Z,981.11
2024-04-02T11:38:04.303Z,981.27
2024-04-02T11:39:04.300Z,981.34
2024-04-02T11:40:04.419Z,981.42
2024-04-02T11:41:04.322Z,981.36
2024-04-02T11:42:04.701Z,981.36
2024-04-02T11:43:04.284Z,981.33
2024-04-02T11:44:04.250Z,981.44
2024-04-02T11:45:04.202Z,981.45
2024-04-02T11:46:04.250Z,981.45
2024-04-02T11:47:04.183Z,981.50
2024-04-02T11:48:05.093Z,981.59
2024-04-02T11:49:04.168Z,981.61
2024-04-02T11:50:04.154Z,981.61
2024-04-02T11:51:04.167Z,981.50
2024-04-02T11:52:04.143Z,981.37
2024-04-02T11:53:04.221Z,981.30
2024-04-02T11:54:04.173Z,981.13
2024-04-02T11:55:04.189Z,981.14
2024-04-02T11:56:04.186Z,981.21
2024-04-02T11:57:04.105Z,981.20
2024-04-02T11:58:04.028Z,981.29
2024-04-02T11:59:04.147Z,981.30
2024-04-02T12:00:04.079Z,981.24
2024-04-02T12:01:05.460Z,981.19
2024-04-02T12:02:05.003Z,981.19
2024-04-02T12:03:04.426Z,981.16
2024-04-02T12:04:03.994Z,981.20
2024-04-02T12:05:04.000Z,981.29
2024-04-02T12:06:03.996Z,981.16
2024-04-02T12:07:03.957Z,981.26
2024-04-02T12:08:03.937Z,981.19
2024-04-02T12:09:03.925Z,981.25
2024-04-02T12:10:03.936Z,981.26
2024-04-02T12:11:03.917Z,981.29
2024-04-02T12:12:03.846Z,981.33
2024-04-02T12:13:03.931Z,981.21
2024-04-02T12:14:03.829Z,981.29
2024-04-02T12:15:03.865Z,981.19
2024-04-02T12:16:03.803Z,981.22
2024-04-02T12:17:03.788Z,981.29
2024-04-02T12:18:03.761Z,981.31
2024-04-02T12:19:04.034Z,981.39
2024-04-02T12:20:03.862Z,981.44
2024-04-02T12:21:03.748Z,981.36
2024-04-02T12:22:03.709Z,981.39
2024-04-02T12:23:03.796Z,981.37
2024-04-02T12:24:03.797Z,981.35
2024-04-02T12:25:03.806Z,981.35
2024-04-02T12:26:03.725Z,981.40
2024-04-02T12:27:03.657Z,981.43
2024-04-02T12:28:03.755Z,981.38